createdAt,value
2017-03-10T00:00:36.961Z,0
2017-03-10T00:01:37.352Z,0
2017-03-10T00:02:37.319Z,0
2017-03-10T00:03:37.309Z,0
2017-03-10T00:04:37.304Z,0
2017-03-10T00:05:36.901Z,0
2017-03-10T00:06:37.314Z,0
2017-03-10T00:07:36.888Z,0
2017-03-10T00:08:37.264Z,0
2017-03-10T00:09:37.249Z,0
2017-03-10T00:10:37.276Z,0
2017-03-10T00:11:36.846Z,0
2017-03-10T00:12:37.221Z,0
2017-03-10T00:13:37.227Z,0
2017-03-10T00:14:37.254Z,0
2017-03-10T00:15:37.236Z,0
2017-03-10T00:16:37.185Z,0
2017-03-10T00:17:37.230Z,0
2017-03-10T00:18:37.191Z,0
2017-03-10T00:19:37.207Z,0
2017-03-10T00:20:37.186Z,0
2017-03-10T00:21:37.144Z,0
2017-03-10T00:22:37.133Z,0
2017-03-10T00:23:37.119Z,0
2017-03-10T00:24:37.107Z,0
2017-03-10T00:25:37.115Z,0
2017-03-10T00:26:36.700Z,0
2017-03-10T00:27:37.101Z,0
2017-03-10T00:28:37.076Z,0
2017-03-10T00:29:37.075Z,0
2017-03-10T00:30:37.060Z,0
2017-03-10T00:31:37.084Z,0
2017-03-10T00:32:37.029Z,0
2017-03-10T00:33:37.025Z,0
2017-03-10T00:34:37.010Z,0
2017-03-10T00:35:37.026Z,0
2017-03-10T00:36:37.014Z,0
2017-03-10T00:37:36.974Z,0
2017-03-10T00:38:36.977Z,0
2017-03-10T00:39:36.989Z,0
2017-03-10T00:40:36.579Z,0
2017-03-10T00:41:36.941Z,0
2017-03-10T00:42:36.972Z,0
2017-03-10T00:43:36.921Z,0
2017-03-10T00:44:36.548Z,0
2017-03-10T00:45:36.907Z,0
2017-03-10T00:46:36.896Z,0
2017-03-10T00:47:36.531Z,0
2017-03-10T00:48:36.892Z,0
2017-03-10T00:49:36.874Z,0
2017-03-10T00:50:36.485Z,0
2017-03-10T00:51:36.862Z,0
2017-03-10T00:52:36.478Z,0
2017-03-10T00:53:36.483Z,0
2017-03-10T00:54:36.441Z,0
2017-03-10T00:55:36.820Z,0
2017-03-10T00:56:36.793Z,0
2017-03-10T00:57:36.777Z,0
2017-03-10T00:58:36.765Z,0
2017-03-10T00:59:36.758Z,0
2017-03-10T01:00:36.774Z,0
2017-03-10T01:01:36.367Z,0
2017-03-10T01:02:36.743Z,0
2017-03-10T01:03:36.713Z,0
2017-03-10T01:04:36.709Z,0
2017-03-10T01:05:36.702Z,0
2017-03-10T01:06:36.295Z,0
2017-03-10T01:07:36.673Z,0
2017-03-10T01:08:36.663Z,0
2017-03-10T01:09:36.300Z,0
2017-03-10T01:10:36.647Z,0
2017-03-10T01:11:36.631Z,0
2017-03-10T01:12:37.540Z,0
2017-03-10T01:13:36.627Z,0
2017-03-10T01:14:36.602Z,0
2017-03-10T01:15:35.833Z,0
2017-03-10T01:16:36.235Z,0
2017-03-10T01:17:36.582Z,0
2017-03-10T01:18:36.560Z,0
2017-03-10T01:19:36.572Z,0
2017-03-10T01:20:36.600Z,0
2017-03-10T01:21:36.547Z,0
2017-03-10T01:22:36.536Z,0
2017-03-10T01:23:36.518Z,0
2017-03-10T01:24:36.532Z,0
2017-03-10T01:25:36.493Z,0
2017-03-10T01:26:36.105Z,0
2017-03-10T01:27:36.489Z,0
2017-03-10T01:28:36.483Z,0
2017-03-10T01:29:36.455Z,0
2017-03-10T01:30:36.429Z,0
2017-03-10T01:31:36.421Z,0
2017-03-10T01:32:36.447Z,0
2017-03-10T01:33:36.397Z,0
2017-03-10T01:34:36.388Z,0
2017-03-10T01:35:36.046Z,0
2017-03-10T01:36:36.378Z,0
2017-03-10T01:37:36.392Z,0
2017-03-10T01:38:36.355Z,0
2017-03-10T01:39:36.365Z,0
2017-03-10T01:40:36.336Z,0
2017-03-10T01:41:36.312Z,0
2017-03-10T01:42:35.921Z,0
2017-03-10T01:43:35.910Z,0
2017-03-10T01:44:35.508Z,0
2017-03-10T01:45:36.267Z,0
2017-03-10T01:46:35.893Z,0
2017-03-10T01:47:36.281Z,0
2017-03-10T01:48:36.268Z,0
2017-03-10T01:49:36.288Z,0
2017-03-10T01:50:36.262Z,0
2017-03-10T01:51:35.856Z,0
2017-03-10T01:52:36.210Z,0
2017-03-10T01:53:36.217Z,0
2017-03-10T01:54:36.186Z,0
2017-03-10T01:55:35.779Z,0
2017-03-10T01:56:36.181Z,0
2017-03-10T01:57:36.142Z,0
2017-03-10T01:58:36.147Z,0
2017-03-10T01:59:36.145Z,0
2017-03-10T02:00:36.143Z,0
2017-03-10T02:01:36.147Z,0
2017-03-10T02:02:35.738Z,0
2017-03-10T02:03:36.079Z,0
2017-03-10T02:04:35.680Z,0
2017-03-10T02:05:36.100Z,0
2017-03-10T02:06:36.060Z,0
2017-03-10T02:07:36.032Z,0
2017-03-10T02:08:36.041Z,0
2017-03-10T02:09:36.022Z,0
2017-03-10T02:10:36.005Z,0
2017-03-10T02:11:36.005Z,0
2017-03-10T02:12:36.012Z,0
2017-03-10T02:13:35.982Z,0
2017-03-10T02:14:35.984Z,0
2017-03-10T02:15:35.959Z,0
2017-03-10T02:16:35.980Z,0
2017-03-10T02:17:35.972Z,0
2017-03-10T02:18:35.931Z,0
2017-03-10T02:19:35.911Z,0
2017-03-10T02:20:35.903Z,0
2017-03-10T02:21:35.896Z,0
2017-03-10T02:22:35.877Z,0
2017-03-10T02:23:35.879Z,0
2017-03-10T02:24:35.854Z,0
2017-03-10T02:25:35.859Z,0
2017-03-10T02:26:35.843Z,0
2017-03-10T02:27:35.853Z,0
2017-03-10T02:28:35.819Z,0
2017-03-10T02:29:35.810Z,0
2017-03-10T02:30:35.801Z,0
2017-03-10T02:31:35.810Z,0
2017-03-10T02:32:35.779Z,0
2017-03-10T02:33:35.780Z,0
2017-03-10T02:34:35.784Z,0
2017-03-10T02:35:35.392Z,0
2017-03-10T02:36:35.768Z,0
2017-03-10T02:37:35.344Z,0
2017-03-10T02:38:34.943Z,0
2017-03-10T02:39:35.355Z,0
2017-03-10T02:40:35.693Z,0
2017-03-10T02:41:35.701Z,0
2017-03-10T02:42:35.694Z,0
2017-03-10T02:43:35.699Z,0
2017-03-10T02:44:35.695Z,0
2017-03-10T02:45:35.647Z,0
2017-03-10T02:46:35.626Z,0
2017-03-10T02:47:35.625Z,0
2017-03-10T02:48:35.642Z,0
2017-03-10T02:49:35.214Z,0
2017-03-10T02:50:35.215Z,0
2017-03-10T02:51:35.577Z,0
2017-03-10T02:52:35.604Z,0
2017-03-10T02:53:35.560Z,0
2017-03-10T02:54:35.558Z,0
2017-03-10T02:55:35.533Z,0
2017-03-10T02:56:35.530Z,0
2017-03-10T02:57:35.519Z,0
2017-03-10T02:58:35.538Z,0
2017-03-10T02:59:35.493Z,0
2017-03-10T03:00:35.486Z,0
2017-03-10T03:01:35.462Z,0
2017-03-10T03:02:35.463Z,0
2017-03-10T03:03:35.066Z,0
2017-03-10T03:04:35.443Z,0
2017-03-10T03:05:35.445Z,0
2017-03-10T03:06:35.452Z,0
2017-03-10T03:07:35.039Z,0
2017-03-10T03:08:34.642Z,0
2017-03-10T03:09:35.375Z,0
2017-03-10T03:10:35.000Z,0
2017-03-10T03:11:34.975Z,0
2017-03-10T03:12:34.619Z,0
2017-03-10T03:13:34.943Z,0
2017-03-10T03:14:34.935Z,0
2017-03-10T03:15:34.534Z,0
2017-03-10T03:16:35.300Z,0
2017-03-10T03:17:35.149Z,0
2017-03-10T03:18:35.303Z,0
2017-03-10T03:19:35.265Z,0
2017-03-10T03:20:35.251Z,0
2017-03-10T03:21:35.246Z,0
2017-03-10T03:22:35.252Z,0
2017-03-10T03:23:35.292Z,0
2017-03-10T03:24:35.262Z,0
2017-03-10T03:25:35.227Z,0
2017-03-10T03:26:35.193Z,0
2017-03-10T03:27:34.792Z,0
2017-03-10T03:28:35.161Z,0
2017-03-10T03:29:35.178Z,0
2017-03-10T03:30:34.774Z,0
2017-03-10T03:31:35.184Z,0
2017-03-10T03:32:34.734Z,0
2017-03-10T03:33:35.134Z,0
2017-03-10T03:34:35.105Z,0
2017-03-10T03:35:35.094Z,0
2017-03-10T03:36:35.087Z,0
2017-03-10T03:37:35.367Z,0
2017-03-10T03:38:35.070Z,0
2017-03-10T03:39:35.075Z,0
2017-03-10T03:40:35.061Z,0
2017-03-10T03:41:34.623Z,0
2017-03-10T03:42:35.008Z,0
2017-03-10T03:43:35.000Z,0
2017-03-10T03:44:34.607Z,0
2017-03-10T03:45:34.987Z,0
2017-03-10T03:46:34.586Z,0
2017-03-10T03:47:34.975Z,0
2017-03-10T03:48:34.943Z,0
2017-03-10T03:49:34.537Z,0
2017-03-10T03:50:34.590Z,0
2017-03-10T03:51:34.514Z,0
2017-03-10T03:52:34.499Z,0
2017-03-10T03:53:34.489Z,0
2017-03-10T03:54:34.866Z,0
2017-03-10T03:55:34.464Z,0
2017-03-10T03:56:34.469Z,0
2017-03-10T03:57:34.496Z,0
2017-03-10T03:58:34.827Z,0
2017-03-10T03:59:34.844Z,0
2017-03-10T04:00:34.796Z,0
2017-03-10T04:01:34.416Z,0
2017-03-10T04:02:34.393Z,0
2017-03-10T04:03:34.384Z,0
2017-03-10T04:04:34.773Z,0
2017-03-10T04:05:34.371Z,0
2017-03-10T04:06:34.729Z,0
2017-03-10T04:07:34.648Z,0
2017-03-10T04:08:34.731Z,0
2017-03-10T04:09:34.718Z,0
2017-03-10T04:10:34.297Z,0
2017-03-10T04:11:33.906Z,0
2017-03-10T04:12:34.696Z,0
2017-03-10T04:13:34.662Z,0
2017-03-10T04:14:34.251Z,0
2017-03-10T04:15:34.650Z,0
2017-03-10T04:16:34.640Z,0
2017-03-10T04:17:34.605Z,0
2017-03-10T04:18:34.590Z,0
2017-03-10T04:19:34.580Z,0
2017-03-10T04:20:34.570Z,0
2017-03-10T04:21:34.191Z,0
2017-03-10T04:22:34.161Z,0
2017-03-10T04:23:34.538Z,0
2017-03-10T04:24:34.546Z,0
2017-03-10T04:25:34.524Z,0
2017-03-10T04:26:34.507Z,0
2017-03-10T04:27:34.493Z,0
2017-03-10T04:28:34.506Z,0
2017-03-10T04:29:34.481Z,0
2017-03-10T04:30:34.466Z,0
2017-03-10T04:31:34.457Z,0
2017-03-10T04:32:34.432Z,0
2017-03-10T04:33:34.417Z,0
2017-03-10T04:34:34.406Z,0
2017-03-10T04:35:34.408Z,0
2017-03-10T04:36:33.660Z,0
2017-03-10T04:37:34.380Z,0
2017-03-10T04:38:33.989Z,0
2017-03-10T04:39:34.376Z,0
2017-03-10T04:40:34.342Z,0
2017-03-10T04:41:34.340Z,0
2017-03-10T04:42:34.326Z,0
2017-03-10T04:43:33.922Z,0
2017-03-10T04:44:34.308Z,0
2017-03-10T04:45:33.917Z,0
2017-03-10T04:46:34.296Z,0
2017-03-10T04:47:34.277Z,0
2017-03-10T04:48:34.247Z,0
2017-03-10T04:49:34.235Z,0
2017-03-10T04:50:34.251Z,0
2017-03-10T04:51:33.863Z,0
2017-03-10T04:52:33.822Z,0
2017-03-10T04:53:34.213Z,0
2017-03-10T04:54:34.177Z,0
2017-03-10T04:55:34.169Z,0
2017-03-10T04:56:34.178Z,0
2017-03-10T04:57:34.155Z,0
2017-03-10T04:58:34.153Z,0
2017-03-10T04:59:34.129Z,0
2017-03-10T05:00:34.141Z,0
2017-03-10T05:01:34.107Z,0
2017-03-10T05:02:34.126Z,0
2017-03-10T05:03:33.725Z,0
2017-03-10T05:04:34.076Z,0
2017-03-10T05:05:34.054Z,0
2017-03-10T05:06:34.079Z,0
2017-03-10T05:07:34.039Z,0
2017-03-10T05:08:34.047Z,0
2017-03-10T05:09:34.021Z,0
2017-03-10T05:10:34.036Z,0
2017-03-10T05:11:33.994Z,0
2017-03-10T05:12:33.983Z,0
2017-03-10T05:13:33.968Z,0
2017-03-10T05:14:33.966Z,0
2017-03-10T05:15:33.965Z,0
2017-03-10T05:16:33.937Z,0
2017-03-10T05:17:33.925Z,0
2017-03-10T05:18:33.521Z,0
2017-03-10T05:19:33.518Z,0
2017-03-10T05:20:33.886Z,0
2017-03-10T05:21:33.881Z,0
2017-03-10T05:22:33.896Z,0
2017-03-10T05:23:33.876Z,0
2017-03-10T05:24:33.855Z,0
2017-03-10T05:25:33.477Z,0
2017-03-10T05:26:33.866Z,0
2017-03-10T05:27:33.847Z,0
2017-03-10T05:28:33.421Z,0
2017-03-10T05:29:33.798Z,0
2017-03-10T05:30:33.784Z,0
2017-03-10T05:31:33.407Z,0
2017-03-10T05:32:33.765Z,0
2017-03-10T05:33:33.764Z,0
2017-03-10T05:34:33.741Z,0
2017-03-10T05:35:33.739Z,0
2017-03-10T05:36:33.737Z,0
2017-03-10T05:37:33.700Z,0
2017-03-10T05:38:33.322Z,0
2017-03-10T05:39:33.672Z,0
2017-03-10T05:40:33.682Z,0
2017-03-10T05:41:32.890Z,0
2017-03-10T05:42:33.653Z,0
2017-03-10T05:43:33.281Z,0
2017-03-10T05:44:33.242Z,0
2017-03-10T05:45:33.241Z,0
2017-03-10T05:46:33.633Z,0
2017-03-10T05:47:33.207Z,0
2017-03-10T05:48:33.205Z,0
2017-03-10T05:49:33.203Z,0
2017-03-10T05:50:33.567Z,0
2017-03-10T05:51:33.557Z,0
2017-03-10T05:52:33.536Z,5
2017-03-10T05:53:33.523Z,5
2017-03-10T05:54:33.508Z,5
2017-03-10T05:55:33.510Z,5
2017-03-10T05:56:33.484Z,5
2017-03-10T05:57:33.491Z,5
2017-03-10T05:58:33.473Z,5
2017-03-10T05:59:33.497Z,5
2017-03-10T06:00:33.453Z,5
2017-03-10T06:01:33.093Z,5
2017-03-10T06:02:33.435Z,5
2017-03-10T06:03:33.441Z,10
2017-03-10T06:04:33.413Z,10
2017-03-10T06:05:33.395Z,10
2017-03-10T06:06:33.417Z,15
2017-03-10T06:07:33.381Z,10
2017-03-10T06:08:33.403Z,15
2017-03-10T06:09:33.348Z,15
2017-03-10T06:10:33.333Z,10
2017-03-10T06:11:33.330Z,10
2017-03-10T06:12:33.317Z,10
2017-03-10T06:13:33.324Z,10
2017-03-10T06:14:33.294Z,10
2017-03-10T06:15:33.298Z,15
2017-03-10T06:16:32.904Z,15
2017-03-10T06:17:33.290Z,20
2017-03-10T06:18:33.296Z,20
2017-03-10T06:19:33.268Z,20
2017-03-10T06:20:33.262Z,20
2017-03-10T06:21:33.253Z,20
2017-03-10T06:22:33.212Z,20
2017-03-10T06:23:33.220Z,20
2017-03-10T06:24:33.237Z,25
2017-03-10T06:25:33.177Z,30
2017-03-10T06:26:33.224Z,25
2017-03-10T06:27:33.184Z,30
2017-03-10T06:28:33.143Z,35
2017-03-10T06:29:32.758Z,25
2017-03-10T06:30:33.142Z,25
2017-03-10T06:31:33.123Z,20
2017-03-10T06:32:33.145Z,25
2017-03-10T06:33:33.101Z,25
2017-03-10T06:34:33.107Z,20
2017-03-10T06:35:33.114Z,25
2017-03-10T06:36:33.074Z,25
2017-03-10T06:37:33.074Z,25
2017-03-10T06:38:33.055Z,25
2017-03-10T06:39:33.038Z,20
2017-03-10T06:40:33.033Z,20
2017-03-10T06:41:32.659Z,20
2017-03-10T06:42:33.021Z,25
2017-03-10T06:43:33.043Z,25
2017-03-10T06:44:33.039Z,30
2017-03-10T06:45:32.976Z,30
2017-03-10T06:46:32.964Z,30
2017-03-10T06:47:32.962Z,30
2017-03-10T06:48:32.943Z,30
2017-03-10T06:49:32.937Z,25
2017-03-10T06:50:32.976Z,30
2017-03-10T06:51:32.929Z,30
2017-03-10T06:52:32.904Z,30
2017-03-10T06:53:32.922Z,25
2017-03-10T06:54:32.883Z,25
2017-03-10T06:55:32.487Z,25
2017-03-10T06:56:32.875Z,25
2017-03-10T06:57:32.889Z,25
2017-03-10T06:58:32.871Z,25
2017-03-10T06:59:32.460Z,30
2017-03-10T07:00:32.816Z,35
2017-03-10T07:01:32.817Z,45
2017-03-10T07:02:32.807Z,70
2017-03-10T07:03:32.830Z,75
2017-03-10T07:04:32.810Z,85
2017-03-10T07:05:32.794Z,75
2017-03-10T07:06:32.753Z,60
2017-03-10T07:07:32.751Z,65
2017-03-10T07:08:32.350Z,65
2017-03-10T07:09:32.729Z,60
2017-03-10T07:10:32.725Z,65
2017-03-10T07:11:32.724Z,70
2017-03-10T07:12:32.720Z,75
2017-03-10T07:13:32.681Z,70
2017-03-10T07:14:32.696Z,65
2017-03-10T07:15:32.662Z,65
2017-03-10T07:16:32.698Z,70
2017-03-10T07:17:32.268Z,70
2017-03-10T07:18:32.667Z,70
2017-03-10T07:19:32.282Z,70
2017-03-10T07:20:32.247Z,85
2017-03-10T07:21:32.604Z,95
2017-03-10T07:22:32.637Z,110
2017-03-10T07:23:32.609Z,120
2017-03-10T07:24:32.615Z,130
2017-03-10T07:25:32.591Z,125
2017-03-10T07:26:32.551Z,140
2017-03-10T07:27:32.587Z,150
2017-03-10T07:28:32.579Z,150
2017-03-10T07:29:32.142Z,155
2017-03-10T07:30:32.719Z,165
2017-03-10T07:31:32.509Z,170
2017-03-10T07:32:32.534Z,180
2017-03-10T07:33:32.107Z,190
2017-03-10T07:34:32.114Z,195
2017-03-10T07:35:32.472Z,205
2017-03-10T07:36:32.452Z,200
2017-03-10T07:37:31.673Z,200
2017-03-10T07:38:32.438Z,195
2017-03-10T07:39:32.430Z,190
2017-03-10T07:40:31.654Z,190
2017-03-10T07:41:32.034Z,190
2017-03-10T07:42:32.041Z,190
2017-03-10T07:43:31.620Z,190
2017-03-10T07:44:32.411Z,200
2017-03-10T07:45:32.043Z,215
2017-03-10T07:46:32.371Z,225
2017-03-10T07:47:31.600Z,235
2017-03-10T07:48:32.340Z,250
2017-03-10T07:49:32.338Z,240
2017-03-10T07:50:32.355Z,240
2017-03-10T07:51:32.308Z,260
2017-03-10T07:52:32.326Z,260
2017-03-10T07:53:32.321Z,245
2017-03-10T07:54:31.905Z,205
2017-03-10T07:55:32.281Z,175
2017-03-10T07:56:32.298Z,155
2017-03-10T07:57:32.278Z,150
2017-03-10T07:58:32.287Z,140
2017-03-10T07:59:32.256Z,135
2017-03-10T08:00:32.238Z,135
2017-03-10T08:01:32.249Z,130
2017-03-10T08:02:32.234Z,155
2017-03-10T08:03:31.858Z,185
2017-03-10T08:04:31.821Z,195
2017-03-10T08:05:32.229Z,190
2017-03-10T08:06:31.797Z,160
2017-03-10T08:07:31.827Z,120
2017-03-10T08:08:32.165Z,125
2017-03-10T08:09:31.809Z,130
2017-03-10T08:10:32.164Z,160
2017-03-10T08:11:32.150Z,190
2017-03-10T08:12:32.139Z,210
2017-03-10T08:13:32.116Z,200
2017-03-10T08:14:31.735Z,185
2017-03-10T08:15:31.719Z,215
2017-03-10T08:16:31.321Z,220
2017-03-10T08:17:32.101Z,180
2017-03-10T08:18:31.703Z,140
2017-03-10T08:19:32.089Z,130
2017-03-10T08:20:32.070Z,120
2017-03-10T08:21:32.058Z,120
2017-03-10T08:22:32.046Z,115
2017-03-10T08:23:32.083Z,100
2017-03-10T08:24:32.073Z,100
2017-03-10T08:25:31.259Z,105
2017-03-10T08:26:31.627Z,105
2017-03-10T08:27:31.641Z,100
2017-03-10T08:28:31.256Z,115
2017-03-10T08:29:31.988Z,140
2017-03-10T08:30:31.982Z,140
2017-03-10T08:31:32.007Z,170
2017-03-10T08:32:31.586Z,200
2017-03-10T08:33:31.950Z,200
2017-03-10T08:34:31.944Z,190
2017-03-10T08:35:31.935Z,195
2017-03-10T08:36:31.942Z,190
2017-03-10T08:37:31.921Z,170
2017-03-10T08:38:32.167Z,150
2017-03-10T08:39:31.516Z,135
2017-03-10T08:40:31.900Z,145
2017-03-10T08:41:31.894Z,190
2017-03-10T08:42:31.881Z,245
2017-03-10T08:43:31.876Z,300
2017-03-10T08:44:31.859Z,350
2017-03-10T08:45:31.858Z,335
2017-03-10T08:46:31.471Z,365
2017-03-10T08:47:31.857Z,520
2017-03-10T08:48:31.835Z,490
2017-03-10T08:49:31.834Z,465
2017-03-10T08:50:31.831Z,405
2017-03-10T08:51:31.417Z,345
2017-03-10T08:52:31.862Z,360
2017-03-10T08:53:31.806Z,410
2017-03-10T08:54:31.420Z,420
2017-03-10T08:55:31.389Z,415
2017-03-10T08:56:31.767Z,355
2017-03-10T08:57:31.764Z,360
2017-03-10T08:58:31.759Z,315
2017-03-10T08:59:31.748Z,275
2017-03-10T09:00:31.737Z,265
2017-03-10T09:01:31.357Z,255
2017-03-10T09:02:31.346Z,255
2017-03-10T09:03:31.758Z,220
2017-03-10T09:04:30.569Z,210
2017-03-10T09:05:31.712Z,205
2017-03-10T09:06:31.300Z,195
2017-03-10T09:07:31.299Z,185
2017-03-10T09:08:31.299Z,180
2017-03-10T09:09:31.283Z,180
2017-03-10T09:10:31.303Z,195
2017-03-10T09:11:31.647Z,225
2017-03-10T09:12:31.276Z,275
2017-03-10T09:13:31.668Z,300
2017-03-10T09:14:31.271Z,325
2017-03-10T09:15:31.272Z,345
2017-03-10T09:16:31.623Z,350
2017-03-10T09:17:31.615Z,320
2017-03-10T09:18:31.644Z,280
2017-03-10T09:19:30.826Z,240
2017-03-10T09:20:31.590Z,190
2017-03-10T09:21:31.235Z,155
2017-03-10T09:22:31.194Z,125
2017-03-10T09:23:31.186Z,115
2017-03-10T09:24:30.791Z,120
2017-03-10T09:25:30.815Z,135
2017-03-10T09:26:31.160Z,160
2017-03-10T09:27:31.147Z,185
2017-03-10T09:28:31.545Z,225
2017-03-10T09:29:31.555Z,270
2017-03-10T09:30:31.514Z,300
2017-03-10T09:31:31.126Z,320
2017-03-10T09:32:31.117Z,370
2017-03-10T09:33:31.505Z,460
2017-03-10T09:34:31.485Z,500
2017-03-10T09:35:31.518Z,470
2017-03-10T09:36:30.696Z,485
2017-03-10T09:37:31.066Z,495
2017-03-10T09:38:30.696Z,450
2017-03-10T09:39:31.061Z,410
2017-03-10T09:40:31.490Z,465
2017-03-10T09:41:31.040Z,480
2017-03-10T09:42:30.673Z,450
2017-03-10T09:43:31.410Z,500
2017-03-10T09:44:30.647Z,530
2017-03-10T09:45:31.017Z,480
2017-03-10T09:46:31.038Z,405
2017-03-10T09:47:30.630Z,320
2017-03-10T09:48:31.374Z,225
2017-03-10T09:49:31.388Z,185
2017-03-10T09:50:31.372Z,175
2017-03-10T09:51:31.368Z,180
2017-03-10T09:52:31.382Z,175
2017-03-10T09:53:30.982Z,165
2017-03-10T09:54:31.366Z,205
2017-03-10T09:55:31.335Z,345
2017-03-10T09:56:30.939Z,415
2017-03-10T09:57:30.952Z,350
2017-03-10T09:58:31.336Z,255
2017-03-10T09:59:30.922Z,210
2017-03-10T10:00:30.917Z,185
2017-03-10T10:01:31.298Z,195
2017-03-10T10:02:31.317Z,235
2017-03-10T10:03:31.312Z,280
2017-03-10T10:04:31.274Z,310
2017-03-10T10:05:31.294Z,360
2017-03-10T10:06:31.244Z,375
2017-03-10T10:07:31.269Z,320
2017-03-10T10:08:31.254Z,290
2017-03-10T10:09:31.226Z,300
2017-03-10T10:10:30.459Z,320
2017-03-10T10:11:30.849Z,310
2017-03-10T10:12:30.872Z,290
2017-03-10T10:13:30.842Z,270
2017-03-10T10:14:30.806Z,245
2017-03-10T10:15:31.200Z,245
2017-03-10T10:16:31.184Z,235
2017-03-10T10:17:30.787Z,225
2017-03-10T10:18:30.781Z,230
2017-03-10T10:19:30.793Z,245
2017-03-10T10:20:30.766Z,265
2017-03-10T10:21:31.132Z,320
2017-03-10T10:22:31.159Z,370
2017-03-10T10:23:31.121Z,395
2017-03-10T10:24:31.119Z,385
2017-03-10T10:25:31.145Z,360
2017-03-10T10:26:30.726Z,350
2017-03-10T10:27:31.099Z,335
2017-03-10T10:28:30.719Z,325
2017-03-10T10:29:30.708Z,330
2017-03-10T10:30:31.083Z,340
2017-03-10T10:31:30.680Z,375
2017-03-10T10:32:30.671Z,415
2017-03-10T10:33:30.663Z,445
2017-03-10T10:34:30.668Z,435
2017-03-10T10:35:30.662Z,400
2017-03-10T10:36:31.032Z,350
2017-03-10T10:37:30.637Z,295
2017-03-10T10:38:31.026Z,275
2017-03-10T10:39:31.038Z,255
2017-03-10T10:40:30.660Z,255
2017-03-10T10:41:30.648Z,220
2017-03-10T10:42:30.647Z,190
2017-03-10T10:43:30.636Z,175
2017-03-10T10:44:30.985Z,160
2017-03-10T10:45:30.969Z,145
2017-03-10T10:46:30.606Z,145
2017-03-10T10:47:30.580Z,145
2017-03-10T10:48:30.572Z,145
2017-03-10T10:49:30.578Z,145
2017-03-10T10:50:30.568Z,175
2017-03-10T10:51:30.929Z,200
2017-03-10T10:52:30.582Z,210
2017-03-10T10:53:30.535Z,220
2017-03-10T10:54:30.537Z,220
2017-03-10T10:55:30.521Z,215
2017-03-10T10:56:30.529Z,230
2017-03-10T10:57:30.503Z,275
2017-03-10T10:58:30.490Z,345
2017-03-10T10:59:30.883Z,390
2017-03-10T11:00:30.893Z,405
2017-03-10T11:01:30.882Z,415
2017-03-10T11:02:30.502Z,390
2017-03-10T11:03:30.858Z,380
2017-03-10T11:04:30.461Z,395
2017-03-10T11:05:30.838Z,420
2017-03-10T11:06:30.871Z,435
2017-03-10T11:07:30.828Z,430
2017-03-10T11:08:30.876Z,420
2017-03-10T11:09:30.043Z,465
2017-03-10T11:10:30.816Z,530
2017-03-10T11:11:30.801Z,570
2017-03-10T11:12:30.809Z,610
2017-03-10T11:13:30.782Z,575
2017-03-10T11:14:30.782Z,510
2017-03-10T11:15:30.813Z,430
2017-03-10T11:16:30.762Z,420
2017-03-10T11:17:30.770Z,435
2017-03-10T11:18:30.785Z,475
2017-03-10T11:19:30.754Z,545
2017-03-10T11:20:30.764Z,580
2017-03-10T11:21:30.736Z,575
2017-03-10T11:22:30.751Z,560
2017-03-10T11:23:30.745Z,475
2017-03-10T11:24:30.711Z,335
2017-03-10T11:25:30.711Z,250
2017-03-10T11:26:30.750Z,200
2017-03-10T11:27:30.700Z,180
2017-03-10T11:28:30.741Z,165
2017-03-10T11:29:30.697Z,160
2017-03-10T11:30:30.716Z,160
2017-03-10T11:31:30.698Z,165
2017-03-10T11:32:30.297Z,170
2017-03-10T11:33:30.681Z,160
2017-03-10T11:34:30.676Z,145
2017-03-10T11:35:30.655Z,165
2017-03-10T11:36:29.884Z,230
2017-03-10T11:37:30.655Z,315
2017-03-10T11:38:30.647Z,350
2017-03-10T11:39:30.627Z,370
2017-03-10T11:40:29.485Z,390
2017-03-10T11:41:30.673Z,390
2017-03-10T11:42:30.628Z,360
2017-03-10T11:43:30.602Z,315
2017-03-10T11:44:30.595Z,285
2017-03-10T11:45:30.592Z,265
2017-03-10T11:46:30.628Z,255
2017-03-10T11:47:30.588Z,250
2017-03-10T11:48:30.573Z,235
2017-03-10T11:49:30.577Z,220
2017-03-10T11:50:30.177Z,215
2017-03-10T11:51:30.567Z,215
2017-03-10T11:52:30.557Z,220
2017-03-10T11:53:30.570Z,225
2017-03-10T11:54:30.525Z,230
2017-03-10T11:55:30.518Z,235
2017-03-10T11:56:30.544Z,235
2017-03-10T11:57:30.563Z,225
2017-03-10T11:58:30.508Z,235
2017-03-10T11:59:30.499Z,255
2017-03-10T12:00:30.529Z,275
2017-03-10T12:01:30.490Z,270
2017-03-10T12:02:30.466Z,265
2017-03-10T12:03:30.472Z,245
2017-03-10T12:04:30.514Z,230
2017-03-10T12:05:30.449Z,240
2017-03-10T12:06:30.443Z,245
2017-03-10T12:07:30.425Z,245
2017-03-10T12:08:30.449Z,260
2017-03-10T12:09:30.434Z,280
2017-03-10T12:10:30.429Z,320
2017-03-10T12:11:30.424Z,355
2017-03-10T12:12:30.422Z,360
2017-03-10T12:13:30.390Z,365
2017-03-10T12:14:30.420Z,370
2017-03-10T12:15:30.377Z,400
2017-03-10T12:16:30.382Z,450
2017-03-10T12:17:29.968Z,435
2017-03-10T12:18:30.362Z,425
2017-03-10T12:19:30.334Z,425
2017-03-10T12:20:30.335Z,445
2017-03-10T12:21:30.317Z,445
2017-03-10T12:22:30.327Z,420
2017-03-10T12:23:29.939Z,390
2017-03-10T12:24:30.345Z,365
2017-03-10T12:25:30.316Z,400
2017-03-10T12:26:29.939Z,405
2017-03-10T12:27:30.277Z,370
2017-03-10T12:28:30.312Z,330
2017-03-10T12:29:30.322Z,295
2017-03-10T12:30:30.267Z,280
2017-03-10T12:31:30.260Z,295
2017-03-10T12:32:30.249Z,295
2017-03-10T12:33:30.267Z,270
2017-03-10T12:34:30.231Z,235
2017-03-10T12:35:30.242Z,225
2017-03-10T12:36:30.236Z,225
2017-03-10T12:37:30.248Z,235
2017-03-10T12:38:29.842Z,240
2017-03-10T12:39:30.217Z,250
2017-03-10T12:40:30.210Z,260
2017-03-10T12:41:30.223Z,270
2017-03-10T12:42:30.221Z,280
2017-03-10T12:43:30.169Z,290
2017-03-10T12:44:30.191Z,305
2017-03-10T12:45:30.154Z,315
2017-03-10T12:46:30.198Z,365
2017-03-10T12:47:30.182Z,430
2017-03-10T12:48:30.172Z,435
2017-03-10T12:49:30.135Z,290
2017-03-10T12:50:30.133Z,190
2017-03-10T12:51:30.152Z,150
2017-03-10T12:52:30.135Z,150
2017-03-10T12:53:30.113Z,155
2017-03-10T12:54:30.104Z,150
2017-03-10T12:55:30.119Z,155
2017-03-10T12:56:30.120Z,175
2017-03-10T12:57:30.100Z,200
2017-03-10T12:58:30.076Z,190
2017-03-10T12:59:30.313Z,175
2017-03-10T13:00:30.087Z,175
2017-03-10T13:01:29.701Z,185
2017-03-10T13:02:30.065Z,250
2017-03-10T13:03:30.046Z,320
2017-03-10T13:04:29.945Z,340
2017-03-10T13:05:30.065Z,335
2017-03-10T13:06:29.640Z,325
2017-03-10T13:07:30.036Z,335
2017-03-10T13:08:30.019Z,335
2017-03-10T13:09:30.008Z,330
2017-03-10T13:10:30.028Z,320
2017-03-10T13:11:29.984Z,325
2017-03-10T13:12:29.984Z,315
2017-03-10T13:13:29.975Z,325
2017-03-10T13:14:29.571Z,325
2017-03-10T13:15:29.950Z,305
2017-03-10T13:16:29.967Z,275
2017-03-10T13:17:29.988Z,280
2017-03-10T13:18:29.950Z,315
2017-03-10T13:19:29.932Z,370
2017-03-10T13:20:29.928Z,385
2017-03-10T13:21:29.948Z,390
2017-03-10T13:22:29.922Z,380
2017-03-10T13:23:29.910Z,370
2017-03-10T13:24:30.168Z,360
2017-03-10T13:25:29.909Z,370
2017-03-10T13:26:29.887Z,405
2017-03-10T13:27:29.871Z,415
2017-03-10T13:28:29.894Z,390
2017-03-10T13:29:29.867Z,360
2017-03-10T13:30:29.895Z,340
2017-03-10T13:31:29.846Z,335
2017-03-10T13:32:29.837Z,315
2017-03-10T13:33:29.838Z,285
2017-03-10T13:34:29.848Z,270
2017-03-10T13:35:29.849Z,250
2017-03-10T13:36:29.820Z,245
2017-03-10T13:37:29.431Z,235
2017-03-10T13:38:29.804Z,240
2017-03-10T13:39:29.808Z,245
2017-03-10T13:40:29.794Z,255
2017-03-10T13:41:29.778Z,265
2017-03-10T13:42:29.820Z,265
2017-03-10T13:43:29.770Z,265
2017-03-10T13:44:29.795Z,275
2017-03-10T13:45:29.758Z,285
2017-03-10T13:46:29.797Z,300
2017-03-10T13:47:29.771Z,295
2017-03-10T13:48:29.769Z,295
2017-03-10T13:49:29.759Z,310
2017-03-10T13:50:29.769Z,355
2017-03-10T13:51:29.756Z,405
2017-03-10T13:52:29.770Z,400
2017-03-10T13:53:29.707Z,370
2017-03-10T13:54:29.714Z,360
2017-03-10T13:55:29.702Z,365
2017-03-10T13:56:29.703Z,380
2017-03-10T13:57:29.687Z,390
2017-03-10T13:58:29.683Z,405
2017-03-10T13:59:29.689Z,370
2017-03-10T14:00:29.671Z,300
2017-03-10T14:01:29.705Z,230
2017-03-10T14:02:29.651Z,175
2017-03-10T14:03:29.671Z,175
2017-03-10T14:04:29.670Z,180
2017-03-10T14:05:29.668Z,135
2017-03-10T14:06:29.648Z,95
2017-03-10T14:07:29.660Z,85
2017-03-10T14:08:29.638Z,95
2017-03-10T14:09:29.608Z,95
2017-03-10T14:10:29.601Z,110
2017-03-10T14:11:29.625Z,135
2017-03-10T14:12:29.621Z,135
2017-03-10T14:13:29.594Z,130